sensor_id;sensor_type;location;lat;lon;timestamp;P1;durP1;ratioP1;P2;durP2;ratioP2
14734;SDS011;7458;49.002;8.472;2022-07-05T00:02:21;6.50;;;3.50;;
14734;SDS011;7458;49.002;8.472;2022-07-05T00:04:47;6.20;;;3.50;;
14734;SDS011;7458;49.002;8.472;2022-07-05T00:07:15;3.78;;;3.33;;
14734;SDS011;7458;49.002;8.472;2022-07-05T00:09:50;3.13;;;2.80;;
14734;SDS011;7458;49.002;8.472;2022-07-05T00:12:19;4.70;;;3.30;;
14734;SDS011;7458;49.002;8.472;2022-07-05T00:14:48;3.90;;;3.35;;
14734;SDS011;7458;49.002;8.472;2022-07-05T00:17:15;5.72;;;3.30;;
14734;SDS011;7458;49.002;8.472;2022-07-05T00:19:41;4.82;;;3.53;;
14734;SDS011;7458;49.002;8.472;2022-07-05T00:22:07;5.43;;;3.63;;
14734;SDS011;7458;49.002;8.472;2022-07-05T00:24:33;6.07;;;3.70;;
14734;SDS011;7458;49.002;8.472;2022-07-05T00:27:00;4.03;;;3.22;;
14734;SDS011;7458;49.002;8.472;2022-07-05T00:29:27;5.93;;;2.97;;
14734;SDS011;7458;49.002;8.472;2022-07-05T00:31:53;3.88;;;3.50;;
14734;SDS011;7458;49.002;8.472;2022-07-05T00:34:19;4.55;;;3.60;;
14734;SDS011;7458;49.002;8.472;2022-07-05T00:36:44;4.90;;;3.63;;
14734;SDS011;7458;49.002;8.472;2022-07-05T00:39:10;4.78;;;3.42;;
14734;SDS011;7458;49.002;8.472;2022-07-05T00:41:37;5.55;;;3.83;;
14734;SDS011;7458;49.002;8.472;2022-07-05T00:44:05;3.97;;;3.28;;
14734;SDS011;7458;49.002;8.472;2022-07-05T00:46:33;6.22;;;3.72;;
14734;SDS011;7458;49.002;8.472;2022-07-05T00:48:59;6.88;;;4.43;;
14734;SDS011;7458;49.002;8.472;2022-07-05T00:51:27;9.82;;;3.60;;
14734;SDS011;7458;49.002;8.472;2022-07-05T00:53:58;4.25;;;3.70;;
14734;SDS011;7458;49.002;8.472;2022-07-05T00:56:25;5.38;;;3.25;;
14734;SDS011;7458;49.002;8.472;2022-07-05T00:58:52;3.75;;;3.30;;
14734;SDS011;7458;49.002;8.472;2022-07-05T01:01:19;10.20;;;4.05;;
14734;SDS011;7458;49.002;8.472;2022-07-05T01:03:45;6.05;;;3.97;;
14734;SDS011;7458;49.002;8.472;2022-07-05T01:06:12;5.28;;;3.00;;
14734;SDS011;7458;49.002;8.472;2022-07-05T01:08:39;5.57;;;4.07;;
14734;SDS011;7458;49.002;8.472;2022-07-05T01:11:09;3.38;;;2.83;;
14734;SDS011;7458;49.002;8.472;2022-07-05T01:13:36;5.03;;;3.65;;
14734;SDS011;7458;49.002;8.472;2022-07-05T01:16:03;6.05;;;4.20;;
14734;SDS011;7458;49.002;8.472;2022-07-05T01:18:30;5.05;;;3.03;;
14734;SDS011;7458;49.002;8.472;2022-07-05T01:20:58;4.43;;;3.47;;
14734;SDS011;7458;49.002;8.472;2022-07-05T01:23:29;5.53;;;4.13;;
14734;SDS011;7458;49.002;8.472;2022-07-05T01:25:58;5.05;;;3.38;;
14734;SDS011;7458;49.002;8.472;2022-07-05T01:28:27;6.25;;;4.15;;
14734;SDS011;7458;49.002;8.472;2022-07-05T01:30:54;5.88;;;4.07;;
14734;SDS011;7458;49.002;8.472;2022-07-05T01:33:26;5.03;;;3.38;;
14734;SDS011;7458;49.002;8.472;2022-07-05T01:35:54;4.43;;;3.45;;
14734;SDS011;7458;49.002;8.472;2022-07-05T01:38:22;4.05;;;3.47;;
14734;SDS011;7458;49.002;8.472;2022-07-05T01:40:49;5.47;;;4.47;;
14734;SDS011;7458;49.002;8.472;2022-07-05T01:43:20;6.28;;;3.88;;
14734;SDS011;7458;49.002;8.472;2022-07-05T01:45:48;12.05;;;3.50;;
14734;SDS011;7458;49.002;8.472;2022-07-05T01:48:15;5.28;;;3.10;;
14734;SDS011;7458;49.002;8.472;2022-07-05T01:50:57;5.25;;;3.22;;
14734;SDS011;7458;49.002;8.472;2022-07-05T01:53:30;7.57;;;3.33;;
14734;SDS011;7458;49.002;8.472;2022-07-05T01:55:59;4.47;;;3.47;;
14734;SDS011;7458;49.002;8.472;2022-07-05T01:58:27;7.20;;;3.30;;
14734;SDS011;7458;49.002;8.472;2022-07-05T02:00:55;5.20;;;3.00;;
14734;SDS011;7458;49.002;8.472;2022-07-05T02:03:22;5.60;;;3.42;;
14734;SDS011;7458;49.002;8.472;2022-07-05T02:05:49;7.68;;;3.70;;
14734;SDS011;7458;49.002;8.472;2022-07-05T02:08:16;4.55;;;3.33;;
14734;SDS011;7458;49.002;8.472;2022-07-05T02:10:44;6.47;;;2.78;;
14734;SDS011;7458;49.002;8.472;2022-07-05T02:13:10;5.03;;;2.65;;
14734;SDS011;7458;49.002;8.472;2022-07-05T02:15:37;5.72;;;3.45;;
14734;SDS011;7458;49.002;8.472;2022-07-05T02:18:06;5.05;;;3.70;;
14734;SDS011;7458;49.002;8.472;2022-07-05T02:20:33;4.53;;;3.30;;
14734;SDS011;7458;49.002;8.472;2022-07-05T02:23:02;5.25;;;3.88;;
14734;SDS011;7458;49.002;8.472;2022-07-05T02:25:28;6.97;;;3.00;;
14734;SDS011;7458;49.002;8.472;2022-07-05T02:27:54;7.35;;;3.83;;
14734;SDS011;7458;49.002;8.472;2022-07-05T02:30:20;5.03;;;4.10;;
14734;SDS011;7458;49.002;8.472;2022-07-05T02:32:46;4.97;;;3.97;;
14734;SDS011;7458;49.002;8.472;2022-07-05T02:35:13;4.95;;;3.88;;
14734;SDS011;7458;49.002;8.472;2022-07-05T02:37:39;4.47;;;3.65;;
14734;SDS011;7458;49.002;8.472;2022-07-05T02:40:06;4.07;;;3.47;;
14734;SDS011;7458;49.002;8.472;2022-07-05T02:42:34;5.75;;;3.90;;
14734;SDS011;7458;49.002;8.472;2022-07-05T02:45:00;4.57;;;3.65;;
14734;SDS011;7458;49.002;8.472;2022-07-05T02:47:25;6.00;;;3.70;;
14734;SDS011;7458;49.002;8.472;2022-07-05T02:49:56;9.57;;;3.40;;
14734;SDS011;7458;49.002;8.472;2022-07-05T02:52:23;15.60;;;3.85;;
14734;SDS011;7458;49.002;8.472;2022-07-05T02:54:49;5.82;;;3.72;;
14734;SDS011;7458;49.002;8.472;2022-07-05T02:57:15;5.75;;;4.38;;
14734;SDS011;7458;49.002;8.472;2022-07-05T02:59:41;6.55;;;3.90;;
14734;SDS011;7458;49.002;8.472;2022-07-05T03:02:07;3.97;;;3.60;;
14734;SDS011;7458;49.002;8.472;2022-07-05T03:04:32;4.18;;;3.78;;
14734;SDS011;7458;49.002;8.472;2022-07-05T03:06:58;4.93;;;4.00;;
14734;SDS011;7458;49.002;8.472;2022-07-05T03:09:24;7.60;;;4.35;;
14734;SDS011;7458;49.002;8.472;2022-07-05T03:11:51;11.13;;;4.90;;
14734;SDS011;7458;49.002;8.472;2022-07-05T03:14:17;4.22;;;3.83;;
14734;SDS011;7458;49.002;8.472;2022-07-05T03:16:43;6.95;;;4.00;;
14734;SDS011;7458;49.002;8.472;2022-07-05T03:19:09;14.80;;;3.78;;
14734;SDS011;7458;49.002;8.472;2022-07-05T03:21:35;4.97;;;4.10;;
14734;SDS011;7458;49.002;8.472;2022-07-05T03:24:01;5.47;;;4.00;;
14734;SDS011;7458;49.002;8.472;2022-07-05T03:26:27;8.68;;;3.95;;
14734;SDS011;7458;49.002;8.472;2022-07-05T03:28:53;4.15;;;3.30;;
14734;SDS011;7458;49.002;8.472;2022-07-05T03:31:19;8.85;;;4.43;;
14734;SDS011;7458;49.002;8.472;2022-07-05T03:33:45;4.45;;;3.80;;
14734;SDS011;7458;49.002;8.472;2022-07-05T03:36:10;6.15;;;3.80;;
14734;SDS011;7458;49.002;8.472;2022-07-05T03:38:36;6.30;;;3.85;;
14734;SDS011;7458;49.002;8.472;2022-07-05T03:41:02;4.78;;;3.58;;
14734;SDS011;7458;49.002;8.472;2022-07-05T03:43:28;10.38;;;4.07;;
14734;SDS011;7458;49.002;8.472;2022-07-05T03:45:54;6.22;;;3.63;;
14734;SDS011;7458;49.002;8.472;2022-07-05T03:48:20;5.13;;;3.60;;
14734;SDS011;7458;49.002;8.472;2022-07-05T03:50:46;5.95;;;3.83;;
14734;SDS011;7458;49.002;8.472;2022-07-05T03:53:12;5.15;;;3.67;;
14734;SDS011;7458;49.002;8.472;2022-07-05T03:55:38;4.25;;;3.70;;
14734;SDS011;7458;49.002;8.472;2022-07-05T03:58:04;7.32;;;3.78;;
14734;SDS011;7458;49.002;8.472;2022-07-05T04:00:30;6.90;;;4.03;;
14734;SDS011;7458;49.002;8.472;2022-07-05T04:02:57;5.15;;;3.60;;
14734;SDS011;7458;49.002;8.472;2022-07-05T04:05:23;4.15;;;3.72;;
14734;SDS011;7458;49.002;8.472;2022-07-05T04:07:52;5.55;;;4.20;;
14734;SDS011;7458;49.002;8.472;2022-07-05T04:10:20;4.40;;;4.00;;
14734;SDS011;7458;49.002;8.472;2022-07-05T04:12:49;10.68;;;4.90;;
14734;SDS011;7458;49.002;8.472;2022-07-05T04:15:15;3.80;;;3.15;;
14734;SDS011;7458;49.002;8.472;2022-07-05T04:17:51;5.30;;;3.95;;
14734;SDS011;7458;49.002;8.472;2022-07-05T04:20:20;4.75;;;3.78;;
14734;SDS011;7458;49.002;8.472;2022-07-05T04:22:49;5.05;;;3.90;;
14734;SDS011;7458;49.002;8.472;2022-07-05T04:25:16;7.53;;;4.53;;
14734;SDS011;7458;49.002;8.472;2022-07-05T04:27:46;4.55;;;3.85;;
14734;SDS011;7458;49.002;8.472;2022-07-05T04:30:18;3.90;;;3.50;;
14734;SDS011;7458;49.002;8.472;2022-07-05T04:32:46;4.45;;;3.45;;
14734;SDS011;7458;49.002;8.472;2022-07-05T04:35:13;6.40;;;4.30;;
14734;SDS011;7458;49.002;8.472;2022-07-05T04:37:39;3.92;;;3.55;;
14734;SDS011;7458;49.002;8.472;2022-07-05T04:40:07;5.60;;;4.18;;
14734;SDS011;7458;49.002;8.472;2022-07-05T04:42:35;13.80;;;4.57;;
14734;SDS011;7458;49.002;8.472;2022-07-05T04:45:01;4.63;;;3.97;;
14734;SDS011;7458;49.002;8.472;2022-07-05T04:47:29;5.93;;;4.38;;
14734;SDS011;7458;49.002;8.472;2022-07-05T04:49:55;5.85;;;3.55;;
14734;SDS011;7458;49.002;8.472;2022-07-05T04:52:22;6.20;;;4.30;;
14734;SDS011;7458;49.002;8.472;2022-07-05T04:54:49;5.50;;;4.40;;
14734;SDS011;7458;49.002;8.472;2022-07-05T04:57:15;7.45;;;4.50;;
14734;SDS011;7458;49.002;8.472;2022-07-05T04:59:42;4.13;;;3.70;;
14734;SDS011;7458;49.002;8.472;2022-07-05T05:02:07;9.80;;;4.13;;
14734;SDS011;7458;49.002;8.472;2022-07-05T05:04:33;4.85;;;4.35;;
14734;SDS011;7458;49.002;8.472;2022-07-05T05:06:59;12.65;;;4.47;;
14734;SDS011;7458;49.002;8.472;2022-07-05T05:09:25;3.75;;;3.35;;
14734;SDS011;7458;49.002;8.472;2022-07-05T05:11:51;4.78;;;4.22;;
14734;SDS011;7458;49.002;8.472;2022-07-05T05:14:17;4.32;;;3.70;;
14734;SDS011;7458;49.002;8.472;2022-07-05T05:16:43;5.47;;;4.05;;
14734;SDS011;7458;49.002;8.472;2022-07-05T05:19:09;7.78;;;4.45;;
14734;SDS011;7458;49.002;8.472;2022-07-05T05:21:34;4.03;;;3.28;;
14734;SDS011;7458;49.002;8.472;2022-07-05T05:24:00;4.97;;;3.47;;
14734;SDS011;7458;49.002;8.472;2022-07-05T05:26:26;5.35;;;4.20;;
14734;SDS011;7458;49.002;8.472;2022-07-05T05:28:52;4.55;;;4.07;;
14734;SDS011;7458;49.002;8.472;2022-07-05T05:31:18;5.65;;;3.83;;
14734;SDS011;7458;49.002;8.472;2022-07-05T05:33:45;5.85;;;4.43;;
14734;SDS011;7458;49.002;8.472;2022-07-05T05:36:11;4.90;;;4.40;;
14734;SDS011;7458;49.002;8.472;2022-07-05T05:38:37;8.93;;;3.67;;
14734;SDS011;7458;49.002;8.472;2022-07-05T05:41:03;7.00;;;4.30;;
14734;SDS011;7458;49.002;8.472;2022-07-05T05:43:29;13.32;;;3.90;;
14734;SDS011;7458;49.002;8.472;2022-07-05T05:45:55;7.22;;;4.20;;
14734;SDS011;7458;49.002;8.472;2022-07-05T05:48:21;6.90;;;4.07;;
14734;SDS011;7458;49.002;8.472;2022-07-05T05:50:47;5.53;;;4.43;;
14734;SDS011;7458;49.002;8.472;2022-07-05T05:53:14;12.95;;;4.55;;
14734;SDS011;7458;49.002;8.472;2022-07-05T05:55:39;19.30;;;4.80;;
14734;SDS011;7458;49.002;8.472;2022-07-05T06:00:40;7.65;;;4.07;;
14734;SDS011;7458;49.002;8.472;2022-07-05T06:03:08;7.15;;;4.13;;
14734;SDS011;7458;49.002;8.472;2022-07-05T06:05:34;7.13;;;4.15;;
14734;SDS011;7458;49.002;8.472;2022-07-05T06:08:00;7.22;;;3.85;;
14734;SDS011;7458;49.002;8.472;2022-07-05T06:10:28;7.50;;;4.32;;
14734;SDS011;7458;49.002;8.472;2022-07-05T06:12:56;5.85;;;3.55;;
14734;SDS011;7458;49.002;8.472;2022-07-05T06:15:25;8.50;;;4.05;;
14734;SDS011;7458;49.002;8.472;2022-07-05T06:17:51;5.57;;;3.63;;
14734;SDS011;7458;49.002;8.472;2022-07-05T06:20:18;5.75;;;2.78;;
14734;SDS011;7458;49.002;8.472;2022-07-05T06:22:48;13.45;;;3.50;;
14734;SDS011;7458;49.002;8.472;2022-07-05T06:25:15;3.42;;;2.65;;
14734;SDS011;7458;49.002;8.472;2022-07-05T06:27:42;7.75;;;3.28;;
14734;SDS011;7458;49.002;8.472;2022-07-05T06:30:14;6.95;;;2.63;;
14734;SDS011;7458;49.002;8.472;2022-07-05T06:32:44;5.28;;;3.25;;
14734;SDS011;7458;49.002;8.472;2022-07-05T06:35:11;9.40;;;3.45;;
14734;SDS011;7458;49.002;8.472;2022-07-05T06:37:41;4.18;;;3.13;;
14734;SDS011;7458;49.002;8.472;2022-07-05T06:40:20;6.72;;;2.90;;
14734;SDS011;7458;49.002;8.472;2022-07-05T06:42:48;4.28;;;3.00;;
14734;SDS011;7458;49.002;8.472;2022-07-05T06:45:16;6.93;;;2.70;;
14734;SDS011;7458;49.002;8.472;2022-07-05T06:47:42;17.30;;;4.03;;
14734;SDS011;7458;49.002;8.472;2022-07-05T06:50:08;8.82;;;3.70;;
14734;SDS011;7458;49.002;8.472;2022-07-05T06:52:35;10.23;;;3.47;;
14734;SDS011;7458;49.002;8.472;2022-07-05T06:55:02;7.57;;;2.60;;
14734;SDS011;7458;49.002;8.472;2022-07-05T06:57:29;5.68;;;3.33;;
14734;SDS011;7458;49.002;8.472;2022-07-05T06:59:54;5.35;;;3.03;;
14734;SDS011;7458;49.002;8.472;2022-07-05T07:02:20;7.00;;;3.20;;
14734;SDS011;7458;49.002;8.472;2022-07-05T07:04:47;8.05;;;3.28;;
14734;SDS011;7458;49.002;8.472;2022-07-05T07:07:13;8.70;;;3.63;;
14734;SDS011;7458;49.002;8.472;2022-07-05T07:12:25;5.00;;;2.97;;
14734;SDS011;7458;49.002;8.472;2022-07-05T07:14:51;7.90;;;3.03;;
14734;SDS011;7458;49.002;8.472;2022-07-05T07:17:18;4.05;;;2.80;;
14734;SDS011;7458;49.002;8.472;2022-07-05T07:19:43;6.18;;;2.90;;
14734;SDS011;7458;49.002;8.472;2022-07-05T07:22:09;3.38;;;2.58;;
14734;SDS011;7458;49.002;8.472;2022-07-05T07:24:35;8.13;;;2.78;;
14734;SDS011;7458;49.002;8.472;2022-07-05T07:27:01;6.28;;;3.38;;
14734;SDS011;7458;49.002;8.472;2022-07-05T07:29:32;4.50;;;2.80;;
14734;SDS011;7458;49.002;8.472;2022-07-05T07:32:00;5.28;;;3.55;;
14734;SDS011;7458;49.002;8.472;2022-07-05T07:34:28;5.38;;;2.28;;
14734;SDS011;7458;49.002;8.472;2022-07-05T07:36:55;7.50;;;2.58;;
14734;SDS011;7458;49.002;8.472;2022-07-05T07:39:22;2.97;;;2.28;;
14734;SDS011;7458;49.002;8.472;2022-07-05T07:41:49;4.72;;;3.20;;
14734;SDS011;7458;49.002;8.472;2022-07-05T07:44:15;6.40;;;3.03;;
14734;SDS011;7458;49.002;8.472;2022-07-05T07:46:41;6.55;;;2.95;;
14734;SDS011;7458;49.002;8.472;2022-07-05T07:49:08;8.15;;;3.58;;
14734;SDS011;7458;49.002;8.472;2022-07-05T07:51:34;8.45;;;3.20;;
14734;SDS011;7458;49.002;8.472;2022-07-05T07:54:01;3.38;;;2.80;;
14734;SDS011;7458;49.002;8.472;2022-07-05T07:56:26;6.60;;;3.38;;
14734;SDS011;7458;49.002;8.472;2022-07-05T07:58:52;6.88;;;3.38;;
14734;SDS011;7458;49.002;8.472;2022-07-05T08:01:18;4.15;;;2.97;;
14734;SDS011;7458;49.002;8.472;2022-07-05T08:03:46;5.57;;;2.80;;
14734;SDS011;7458;49.002;8.472;2022-07-05T08:06:13;6.68;;;2.95;;
14734;SDS011;7458;49.002;8.472;2022-07-05T08:08:41;5.38;;;3.40;;
14734;SDS011;7458;49.002;8.472;2022-07-05T08:11:09;7.88;;;3.35;;
14734;SDS011;7458;49.002;8.472;2022-07-05T08:13:37;4.20;;;2.88;;
14734;SDS011;7458;49.002;8.472;2022-07-05T08:16:08;9.70;;;3.17;;
14734;SDS011;7458;49.002;8.472;2022-07-05T08:18:34;11.73;;;2.42;;
14734;SDS011;7458;49.002;8.472;2022-07-05T08:21:19;2.75;;;2.40;;
14734;SDS011;7458;49.002;8.472;2022-07-05T08:24:00;8.50;;;2.42;;
14734;SDS011;7458;49.002;8.472;2022-07-05T08:26:37;4.30;;;2.60;;
14734;SDS011;7458;49.002;8.472;2022-07-05T08:29:05;5.28;;;2.10;;
14734;SDS011;7458;49.002;8.472;2022-07-05T08:31:37;2.72;;;1.65;;
14734;SDS011;7458;49.002;8.472;2022-07-05T08:34:09;4.70;;;1.90;;
14734;SDS011;7458;49.002;8.472;2022-07-05T08:36:35;4.45;;;1.83;;
14734;SDS011;7458;49.002;8.472;2022-07-05T08:39:03;4.30;;;2.50;;
14734;SDS011;7458;49.002;8.472;2022-07-05T08:41:29;2.95;;;2.15;;
14734;SDS011;7458;49.002;8.472;2022-07-05T08:43:59;1.83;;;1.70;;
14734;SDS011;7458;49.002;8.472;2022-07-05T08:46:27;3.33;;;2.30;;
14734;SDS011;7458;49.002;8.472;2022-07-05T08:48:58;4.93;;;2.00;;
14734;SDS011;7458;49.002;8.472;2022-07-05T08:51:28;3.08;;;2.25;;
14734;SDS011;7458;49.002;8.472;2022-07-05T08:53:54;12.05;;;2.80;;
14734;SDS011;7458;49.002;8.472;2022-07-05T08:56:21;4.30;;;2.42;;
14734;SDS011;7458;49.002;8.472;2022-07-05T08:58:47;2.75;;;2.20;;
14734;SDS011;7458;49.002;8.472;2022-07-05T09:01:14;2.80;;;2.00;;
14734;SDS011;7458;49.002;8.472;2022-07-05T09:06:13;2.95;;;2.28;;
14734;SDS011;7458;49.002;8.472;2022-07-05T09:08:43;6.53;;;2.08;;
14734;SDS011;7458;49.002;8.472;2022-07-05T09:11:11;5.13;;;2.55;;
14734;SDS011;7458;49.002;8.472;2022-07-05T09:13:40;6.97;;;2.28;;
14734;SDS011;7458;49.002;8.472;2022-07-05T09:16:12;3.08;;;2.25;;
14734;SDS011;7458;49.002;8.472;2022-07-05T09:18:38;2.92;;;2.20;;
14734;SDS011;7458;49.002;8.472;2022-07-05T09:21:26;2.90;;;2.55;;
14734;SDS011;7458;49.002;8.472;2022-07-05T09:23:53;2.45;;;2.25;;
14734;SDS011;7458;49.002;8.472;2022-07-05T09:26:27;11.73;;;2.40;;
14734;SDS011;7458;49.002;8.472;2022-07-05T09:29:03;4.82;;;2.30;;
14734;SDS011;7458;49.002;8.472;2022-07-05T09:31:44;2.28;;;1.67;;
14734;SDS011;7458;49.002;8.472;2022-07-05T09:34:17;3.05;;;1.92;;
14734;SDS011;7458;49.002;8.472;2022-07-05T09:36:52;4.40;;;2.10;;
14734;SDS011;7458;49.002;8.472;2022-07-05T09:44:56;2.25;;;1.98;;
14734;SDS011;7458;49.002;8.472;2022-07-05T09:47:24;5.28;;;1.80;;
14734;SDS011;7458;49.002;8.472;2022-07-05T09:49:54;4.93;;;2.92;;
14734;SDS011;7458;49.002;8.472;2022-07-05T09:52:35;2.97;;;2.20;;
14734;SDS011;7458;49.002;8.472;2022-07-05T09:55:04;4.00;;;2.53;;
14734;SDS011;7458;49.002;8.472;2022-07-05T09:57:40;5.77;;;2.03;;
14734;SDS011;7458;49.002;8.472;2022-07-05T10:02:45;6.10;;;2.20;;
14734;SDS011;7458;49.002;8.472;2022-07-05T10:05:23;3.22;;;1.83;;
14734;SDS011;7458;49.002;8.472;2022-07-05T10:07:51;3.13;;;2.83;;
14734;SDS011;7458;49.002;8.472;2022-07-05T10:10:25;2.30;;;1.75;;
14734;SDS011;7458;49.002;8.472;2022-07-05T10:12:53;3.92;;;1.75;;
14734;SDS011;7458;49.002;8.472;2022-07-05T10:15:26;3.55;;;2.15;;
14734;SDS011;7458;49.002;8.472;2022-07-05T10:20:45;2.33;;;2.13;;
14734;SDS011;7458;49.002;8.472;2022-07-05T10:23:15;6.28;;;2.00;;
14734;SDS011;7458;49.002;8.472;2022-07-05T10:25:49;6.72;;;1.67;;
14734;SDS011;7458;49.002;8.472;2022-07-05T10:28:17;3.63;;;2.38;;
14734;SDS011;7458;49.002;8.472;2022-07-05T10:30:48;1.88;;;1.77;;
14734;SDS011;7458;49.002;8.472;2022-07-05T10:33:16;2.13;;;1.42;;
14734;SDS011;7458;49.002;8.472;2022-07-05T10:35:50;6.50;;;1.95;;
14734;SDS011;7458;49.002;8.472;2022-07-05T10:38:18;3.72;;;1.95;;
14734;SDS011;7458;49.002;8.472;2022-07-05T10:40:49;5.38;;;2.30;;
14734;SDS011;7458;49.002;8.472;2022-07-05T10:43:21;5.07;;;2.42;;
14734;SDS011;7458;49.002;8.472;2022-07-05T10:45:48;4.47;;;1.70;;
14734;SDS011;7458;49.002;8.472;2022-07-05T10:48:17;2.40;;;2.10;;
14734;SDS011;7458;49.002;8.472;2022-07-05T10:50:54;11.60;;;2.55;;
14734;SDS011;7458;49.002;8.472;2022-07-05T10:53:24;3.95;;;2.08;;
14734;SDS011;7458;49.002;8.472;2022-07-05T10:56:14;2.25;;;2.05;;
14734;SDS011;7458;49.002;8.472;2022-07-05T10:58:42;3.45;;;2.78;;
14734;SDS011;7458;49.002;8.472;2022-07-05T11:06:26;3.72;;;1.83;;
14734;SDS011;7458;49.002;8.472;2022-07-05T11:11:37;2.50;;;1.88;;
14734;SDS011;7458;49.002;8.472;2022-07-05T11:17:37;2.10;;;1.90;;
14734;SDS011;7458;49.002;8.472;2022-07-05T11:23:01;2.90;;;1.88;;
14734;SDS011;7458;49.002;8.472;2022-07-05T11:25:36;3.60;;;1.90;;
14734;SDS011;7458;49.002;8.472;2022-07-05T11:33:31;2.33;;;1.70;;
14734;SDS011;7458;49.002;8.472;2022-07-05T11:36:01;2.00;;;1.52;;
14734;SDS011;7458;49.002;8.472;2022-07-05T11:38:29;6.53;;;2.45;;
14734;SDS011;7458;49.002;8.472;2022-07-05T11:40:56;2.08;;;1.73;;
14734;SDS011;7458;49.002;8.472;2022-07-05T11:43:37;4.07;;;2.15;;
14734;SDS011;7458;49.002;8.472;2022-07-05T11:46:06;4.18;;;1.55;;
14734;SDS011;7458;49.002;8.472;2022-07-05T11:48:32;3.50;;;2.13;;
14734;SDS011;7458;49.002;8.472;2022-07-05T11:50:57;3.08;;;2.15;;
14734;SDS011;7458;49.002;8.472;2022-07-05T11:53:36;4.05;;;2.70;;
14734;SDS011;7458;49.002;8.472;2022-07-05T11:56:06;3.00;;;2.35;;
14734;SDS011;7458;49.002;8.472;2022-07-05T11:58:32;9.25;;;2.60;;
14734;SDS011;7458;49.002;8.472;2022-07-05T12:00:59;3.35;;;1.95;;
14734;SDS011;7458;49.002;8.472;2022-07-05T12:03:26;3.60;;;2.33;;
14734;SDS011;7458;49.002;8.472;2022-07-05T12:05:53;2.20;;;1.52;;
14734;SDS011;7458;49.002;8.472;2022-07-05T12:08:21;2.65;;;1.98;;
14734;SDS011;7458;49.002;8.472;2022-07-05T12:10:48;5.28;;;2.13;;
14734;SDS011;7458;49.002;8.472;2022-07-05T12:13:43;4.82;;;2.03;;
14734;SDS011;7458;49.002;8.472;2022-07-05T12:16:11;1.80;;;1.63;;
14734;SDS011;7458;49.002;8.472;2022-07-05T12:18:54;2.05;;;1.77;;
14734;SDS011;7458;49.002;8.472;2022-07-05T12:21:22;4.15;;;1.50;;
14734;SDS011;7458;49.002;8.472;2022-07-05T12:23:49;5.63;;;2.47;;
14734;SDS011;7458;49.002;8.472;2022-07-05T12:26:17;3.45;;;2.10;;
14734;SDS011;7458;49.002;8.472;2022-07-05T12:28:44;2.30;;;1.77;;
14734;SDS011;7458;49.002;8.472;2022-07-05T12:31:18;6.05;;;2.58;;
14734;SDS011;7458;49.002;8.472;2022-07-05T12:33:46;3.25;;;2.03;;
14734;SDS011;7458;49.002;8.472;2022-07-05T12:36:16;2.58;;;1.65;;
14734;SDS011;7458;49.002;8.472;2022-07-05T12:38:45;4.75;;;2.20;;
14734;SDS011;7458;49.002;8.472;2022-07-05T12:41:11;2.75;;;1.95;;
14734;SDS011;7458;49.002;8.472;2022-07-05T12:43:53;3.60;;;1.98;;
14734;SDS011;7458;49.002;8.472;2022-07-05T12:46:21;5.55;;;2.10;;
14734;SDS011;7458;49.002;8.472;2022-07-05T12:49:04;3.95;;;1.90;;
14734;SDS011;7458;49.002;8.472;2022-07-05T12:51:31;2.75;;;1.90;;
14734;SDS011;7458;49.002;8.472;2022-07-05T12:54:02;1.83;;;1.40;;
14734;SDS011;7458;49.002;8.472;2022-07-05T12:56:52;2.45;;;1.75;;
14734;SDS011;7458;49.002;8.472;2022-07-05T12:59:37;2.42;;;1.92;;
14734;SDS011;7458;49.002;8.472;2022-07-05T13:02:05;2.30;;;1.80;;
14734;SDS011;7458;49.002;8.472;2022-07-05T13:04:32;5.85;;;2.13;;
14734;SDS011;7458;49.002;8.472;2022-07-05T13:06:58;5.90;;;2.05;;
14734;SDS011;7458;49.002;8.472;2022-07-05T13:12:06;2.72;;;1.85;;
14734;SDS011;7458;49.002;8.472;2022-07-05T13:14:50;4.07;;;1.60;;
14734;SDS011;7458;49.002;8.472;2022-07-05T13:19:46;6.05;;;2.38;;
14734;SDS011;7458;49.002;8.472;2022-07-05T13:22:15;3.45;;;2.17;;
14734;SDS011;7458;49.002;8.472;2022-07-05T13:24:41;2.28;;;2.03;;
14734;SDS011;7458;49.002;8.472;2022-07-05T13:27:08;2.35;;;1.92;;
14734;SDS011;7458;49.002;8.472;2022-07-05T13:29:36;4.63;;;1.80;;
14734;SDS011;7458;49.002;8.472;2022-07-05T13:32:03;3.42;;;1.98;;
14734;SDS011;7458;49.002;8.472;2022-07-05T13:34:29;1.92;;;1.73;;
14734;SDS011;7458;49.002;8.472;2022-07-05T13:36:56;2.72;;;1.80;;
14734;SDS011;7458;49.002;8.472;2022-07-05T13:39:25;3.15;;;1.52;;
14734;SDS011;7458;49.002;8.472;2022-07-05T13:41:52;5.85;;;2.42;;
14734;SDS011;7458;49.002;8.472;2022-07-05T13:44:20;3.72;;;1.85;;
14734;SDS011;7458;49.002;8.472;2022-07-05T13:46:47;2.55;;;1.98;;
14734;SDS011;7458;49.002;8.472;2022-07-05T13:49:13;3.47;;;1.98;;
14734;SDS011;7458;49.002;8.472;2022-07-05T13:51:40;2.50;;;1.80;;
14734;SDS011;7458;49.002;8.472;2022-07-05T13:54:06;2.70;;;1.55;;
14734;SDS011;7458;49.002;8.472;2022-07-05T13:56:32;2.20;;;1.80;;
14734;SDS011;7458;49.002;8.472;2022-07-05T13:59:00;2.65;;;1.95;;
14734;SDS011;7458;49.002;8.472;2022-07-05T14:01:28;3.50;;;1.90;;
14734;SDS011;7458;49.002;8.472;2022-07-05T14:03:55;2.28;;;1.85;;
14734;SDS011;7458;49.002;8.472;2022-07-05T14:06:24;2.97;;;1.88;;
14734;SDS011;7458;49.002;8.472;2022-07-05T14:08:50;4.80;;;1.80;;
14734;SDS011;7458;49.002;8.472;2022-07-05T14:11:16;3.72;;;2.10;;
14734;SDS011;7458;49.002;8.472;2022-07-05T14:13:42;3.90;;;2.17;;
14734;SDS011;7458;49.002;8.472;2022-07-05T14:16:08;2.60;;;2.00;;
14734;SDS011;7458;49.002;8.472;2022-07-05T14:18:34;2.28;;;1.90;;
14734;SDS011;7458;49.002;8.472;2022-07-05T14:21:00;2.50;;;2.25;;
14734;SDS011;7458;49.002;8.472;2022-07-05T14:23:26;5.00;;;2.22;;
14734;SDS011;7458;49.002;8.472;2022-07-05T14:25:52;2.85;;;1.70;;
14734;SDS011;7458;49.002;8.472;2022-07-05T14:28:18;4.35;;;2.30;;
14734;SDS011;7458;49.002;8.472;2022-07-05T14:30:44;2.53;;;1.98;;
14734;SDS011;7458;49.002;8.472;2022-07-05T14:33:12;2.35;;;1.85;;
14734;SDS011;7458;49.002;8.472;2022-07-05T14:35:40;4.18;;;1.88;;
14734;SDS011;7458;49.002;8.472;2022-07-05T14:38:07;1.85;;;1.65;;
14734;SDS011;7458;49.002;8.472;2022-07-05T14:40:33;2.92;;;1.75;;
14734;SDS011;7458;49.002;8.472;2022-07-05T14:42:59;2.33;;;1.80;;
14734;SDS011;7458;49.002;8.472;2022-07-05T14:45:27;4.03;;;1.85;;
14734;SDS011;7458;49.002;8.472;2022-07-05T14:47:54;3.08;;;1.67;;
14734;SDS011;7458;49.002;8.472;2022-07-05T14:50:20;1.75;;;1.55;;
14734;SDS011;7458;49.002;8.472;2022-07-05T14:52:47;2.60;;;1.73;;
14734;SDS011;7458;49.002;8.472;2022-07-05T14:55:13;6.78;;;2.30;;
14734;SDS011;7458;49.002;8.472;2022-07-05T14:57:40;2.67;;;1.85;;
14734;SDS011;7458;49.002;8.472;2022-07-05T15:00:15;3.83;;;1.63;;
14734;SDS011;7458;49.002;8.472;2022-07-05T15:02:42;2.25;;;1.73;;
14734;SDS011;7458;49.002;8.472;2022-07-05T15:05:08;2.28;;;1.65;;
14734;SDS011;7458;49.002;8.472;2022-07-05T15:07:36;1.90;;;1.40;;
14734;SDS011;7458;49.002;8.472;2022-07-05T15:10:05;1.88;;;1.70;;
14734;SDS011;7458;49.002;8.472;2022-07-05T15:12:32;1.85;;;1.60;;
14734;SDS011;7458;49.002;8.472;2022-07-05T15:14:58;2.92;;;2.30;;
14734;SDS011;7458;49.002;8.472;2022-07-05T15:17:24;3.00;;;2.25;;
14734;SDS011;7458;49.002;8.472;2022-07-05T15:19:50;2.95;;;1.90;;
14734;SDS011;7458;49.002;8.472;2022-07-05T15:22:16;3.95;;;1.77;;
14734;SDS011;7458;49.002;8.472;2022-07-05T15:24:41;4.03;;;1.80;;
14734;SDS011;7458;49.002;8.472;2022-07-05T15:27:07;1.77;;;1.60;;
14734;SDS011;7458;49.002;8.472;2022-07-05T15:29:34;4.18;;;2.00;;
14734;SDS011;7458;49.002;8.472;2022-07-05T15:32:03;4.32;;;1.63;;
14734;SDS011;7458;49.002;8.472;2022-07-05T15:34:30;3.05;;;2.00;;
14734;SDS011;7458;49.002;8.472;2022-07-05T15:36:56;2.63;;;1.70;;
14734;SDS011;7458;49.002;8.472;2022-07-05T15:39:22;1.88;;;1.67;;
14734;SDS011;7458;49.002;8.472;2022-07-05T15:41:48;1.40;;;1.30;;
14734;SDS011;7458;49.002;8.472;2022-07-05T15:44:13;3.38;;;1.90;;
14734;SDS011;7458;49.002;8.472;2022-07-05T15:46:39;2.10;;;1.73;;
14734;SDS011;7458;49.002;8.472;2022-07-05T15:49:24;3.78;;;2.15;;
14734;SDS011;7458;49.002;8.472;2022-07-05T15:51:50;3.00;;;2.05;;